createdAt,value
2023-12-27T00:02:24.567Z,2.3
2023-12-27T00:05:24.597Z,2.3
2023-12-27T00:08:24.577Z,2.2
2023-12-27T00:11:24.581Z,2.2
2023-12-27T00:14:24.585Z,2.2
2023-12-27T00:17:24.599Z,2.2
2023-12-27T00:20:24.618Z,2.1
2023-12-27T00:23:24.605Z,2.2
2023-12-27T00:26:24.608Z,2.1
2023-12-27T00:29:24.613Z,2.1
2023-12-27T00:32:24.625Z,2.1
2023-12-27T00:35:24.634Z,2.1
2023-12-27T00:38:24.616Z,2.1
2023-12-27T00:41:24.616Z,2.1
2023-12-27T00:44:24.615Z,2.1
2023-12-27T00:47:24.628Z,2.1
2023-12-27T00:50:24.638Z,2
2023-12-27T00:53:24.619Z,2
2023-12-27T00:56:24.620Z,2
2023-12-27T00:59:24.623Z,2
2023-12-27T01:02:24.628Z,2.1
2023-12-27T01:05:24.634Z,2
2023-12-27T01:08:24.627Z,2
2023-12-27T01:11:24.641Z,2
2023-12-27T01:14:24.626Z,2.1
2023-12-27T01:17:24.684Z,2.1
2023-12-27T01:20:24.649Z,2.1
2023-12-27T01:23:24.651Z,2
2023-12-27T01:26:24.649Z,2
2023-12-27T01:29:24.660Z,2
2023-12-27T01:32:24.680Z,2
2023-12-27T01:35:24.710Z,2
2023-12-27T01:38:24.676Z,2.1
2023-12-27T01:41:24.685Z,2
2023-12-27T01:44:24.707Z,1.9
2023-12-27T01:47:24.701Z,2
2023-12-27T01:50:24.721Z,1.9
2023-12-27T01:53:24.712Z,1.9
2023-12-27T01:56:24.724Z,1.9
2023-12-27T01:59:24.725Z,1.9
2023-12-27T02:02:24.737Z,1.9
2023-12-27T02:05:24.763Z,1.9
2023-12-27T02:08:24.765Z,1.8
2023-12-27T02:11:24.753Z,1.8
2023-12-27T02:14:24.764Z,1.8
2023-12-27T02:17:24.780Z,1.7
2023-12-27T02:20:24.786Z,1.7
2023-12-27T02:23:24.776Z,1.7
2023-12-27T02:26:24.781Z,1.7
2023-12-27T02:29:24.802Z,1.7
2023-12-27T02:32:24.797Z,1.7
2023-12-27T02:35:24.931Z,1.6
2023-12-27T02:38:24.821Z,1.6
2023-12-27T02:41:24.823Z,1.6
2023-12-27T02:44:24.829Z,1.6
2023-12-27T02:47:24.896Z,1.6
2023-12-27T02:50:24.867Z,1.6
2023-12-27T02:53:24.849Z,1.6
2023-12-27T02:56:24.864Z,1.6
2023-12-27T02:59:24.867Z,1.6
2023-12-27T03:02:24.924Z,1.5
2023-12-27T03:05:24.937Z,1.6
2023-12-27T03:08:24.901Z,1.5
2023-12-27T03:11:24.898Z,1.5
2023-12-27T03:14:24.912Z,1.5
2023-12-27T03:17:24.971Z,1.4
2023-12-27T03:20:24.959Z,1.4
2023-12-27T03:23:24.937Z,1.4
2023-12-27T03:26:24.942Z,1.3
2023-12-27T03:29:24.948Z,1.3
2023-12-27T03:32:24.968Z,1.2
2023-12-27T03:35:24.988Z,1.3
2023-12-27T03:38:24.974Z,1.3
2023-12-27T03:41:24.972Z,1.3
2023-12-27T03:44:24.984Z,1.3
2023-12-27T03:47:24.998Z,1.3
2023-12-27T03:50:25.009Z,1.3
2023-12-27T03:53:25.012Z,1.3
2023-12-27T03:56:25.022Z,1.3
2023-12-27T03:59:25.035Z,1.3
2023-12-27T04:02:25.046Z,1.3
2023-12-27T04:05:25.088Z,1.3
2023-12-27T04:08:25.062Z,1.3
2023-12-27T04:11:25.078Z,1.2
2023-12-27T04:14:25.103Z,1.1
2023-12-27T04:17:25.134Z,1.1
2023-12-27T04:20:25.128Z,1.1
2023-12-27T04:23:25.122Z,1.1
2023-12-27T04:26:25.123Z,1
2023-12-27T04:29:25.139Z,1.1
2023-12-27T04:32:25.154Z,1
2023-12-27T04:35:25.179Z,1
2023-12-27T04:38:25.192Z,1
2023-12-27T04:41:25.184Z,0.9
2023-12-27T04:44:25.198Z,0.8
2023-12-27T04:47:25.270Z,0.8
2023-12-27T04:50:25.293Z,0.8
2023-12-27T04:53:25.263Z,0.9
2023-12-27T04:56:25.236Z,1
2023-12-27T04:59:25.250Z,1.1
2023-12-27T05:02:25.250Z,1.1
2023-12-27T05:05:25.324Z,1
2023-12-27T05:08:25.286Z,0.8
2023-12-27T05:11:25.300Z,0.7
2023-12-27T05:14:25.307Z,0.6
2023-12-27T05:17:25.389Z,0.6
2023-12-27T05:20:25.368Z,0.7
2023-12-27T05:23:25.372Z,0.9
2023-12-27T05:26:25.421Z,1.2
2023-12-27T05:29:26.700Z,1.3
2023-12-27T05:32:25.538Z,1.5
2023-12-27T05:35:25.458Z,1.5
2023-12-27T05:38:25.455Z,1.5
2023-12-27T05:41:25.471Z,1.6
2023-12-27T05:44:25.481Z,1.6
2023-12-27T05:47:25.456Z,1.6
2023-12-27T05:50:25.460Z,1.6
2023-12-27T05:53:25.454Z,1.6
2023-12-27T05:56:25.456Z,1.6
2023-12-27T05:59:25.455Z,1.5
2023-12-27T06:02:25.468Z,1.5
2023-12-27T06:05:25.531Z,1.4
2023-12-27T06:08:25.463Z,1.4
2023-12-27T06:11:25.456Z,1.4
2023-12-27T06:14:25.468Z,1.4
2023-12-27T06:17:25.490Z,1.4
2023-12-27T06:20:25.463Z,1.4
2023-12-27T06:23:25.459Z,1.3
2023-12-27T06:26:25.471Z,1.3
2023-12-27T06:29:25.475Z,1.3
2023-12-27T06:32:25.474Z,1.2
2023-12-27T06:35:25.467Z,1.2
2023-12-27T06:38:25.457Z,1.3
2023-12-27T06:41:25.471Z,1.3
2023-12-27T06:44:25.454Z,1.3
2023-12-27T06:47:25.487Z,1.3
2023-12-27T06:50:25.468Z,1.4
2023-12-27T06:53:25.477Z,1.4
2023-12-27T06:56:25.476Z,1.4
2023-12-27T06:59:25.457Z,1.4
2023-12-27T07:02:25.516Z,1.3
2023-12-27T07:05:25.550Z,1.2
2023-12-27T07:08:25.465Z,1.2
2023-12-27T07:11:25.464Z,1.2
2023-12-27T07:14:25.471Z,1.2
2023-12-27T07:17:25.505Z,1.2
2023-12-27T07:20:25.490Z,1.2
2023-12-27T07:23:25.475Z,1.2
2023-12-27T07:26:25.477Z,1.2
2023-12-27T07:29:25.485Z,1.2
2023-12-27T07:32:25.487Z,1.2
2023-12-27T07:35:25.500Z,1.1
2023-12-27T07:38:25.487Z,1.1
2023-12-27T07:41:25.497Z,1.2
2023-12-27T07:44:25.501Z,1.3
2023-12-27T07:47:25.507Z,1.3
2023-12-27T07:50:25.510Z,1.5
2023-12-27T07:53:25.503Z,1.5
2023-12-27T07:56:25.512Z,1.6
2023-12-27T07:59:25.502Z,1.6
2023-12-27T08:02:25.502Z,1.6
2023-12-27T08:05:25.538Z,1.6
2023-12-27T08:08:25.523Z,1.7
2023-12-27T08:11:25.508Z,1.7
2023-12-27T08:14:25.522Z,1.8
2023-12-27T08:17:25.557Z,1.8
2023-12-27T08:20:25.714Z,1.9
2023-12-27T08:23:25.541Z,1.9
2023-12-27T08:26:25.531Z,1.9
2023-12-27T08:29:25.560Z,1.9
2023-12-27T08:32:25.551Z,1.9
2023-12-27T08:35:25.555Z,1.9
2023-12-27T08:38:25.599Z,2
2023-12-27T08:41:25.554Z,2
2023-12-27T08:44:25.561Z,2.1
2023-12-27T08:47:25.596Z,2.2
2023-12-27T08:50:25.565Z,2.2
2023-12-27T08:53:25.564Z,2.3
2023-12-27T08:56:25.559Z,2.4
2023-12-27T08:59:26.579Z,2.4
2023-12-27T09:02:25.599Z,2.4
2023-12-27T09:05:25.681Z,2.5
2023-12-27T09:08:25.586Z,2.4
2023-12-27T09:11:39.335Z,2.4
2023-12-27T09:14:25.601Z,2.4
2023-12-27T09:17:25.606Z,2.5
2023-12-27T09:20:25.646Z,2.5
2023-12-27T09:23:25.624Z,2.5
2023-12-27T09:26:25.651Z,2.6
2023-12-27T09:29:25.630Z,2.7
2023-12-27T09:32:25.756Z,2.8
2023-12-27T09:35:25.656Z,2.9
2023-12-27T09:38:25.644Z,3
2023-12-27T09:41:25.659Z,3.1
2023-12-27T09:44:25.670Z,3.2
2023-12-27T09:47:25.664Z,3.3
2023-12-27T09:50:25.672Z,3.2
2023-12-27T09:53:25.685Z,3.2
2023-12-27T09:56:25.671Z,3.1
2023-12-27T09:59:25.676Z,3.1
2023-12-27T10:02:25.709Z,3.2
2023-12-27T10:05:25.733Z,3.2
2023-12-27T10:08:25.711Z,3.2
2023-12-27T10:11:25.718Z,3.2
2023-12-27T10:14:25.714Z,3.2
2023-12-27T10:17:25.746Z,3.1
2023-12-27T10:20:25.726Z,3.1
2023-12-27T10:23:25.718Z,3.1
2023-12-27T10:26:25.731Z,3.1
2023-12-27T10:29:25.731Z,3.1
2023-12-27T10:32:25.773Z,3.1
2023-12-27T10:35:25.748Z,3.1
2023-12-27T10:38:25.747Z,3.1
2023-12-27T10:41:25.759Z,3.1
2023-12-27T10:44:25.761Z,3.1
2023-12-27T10:47:25.786Z,3.1
2023-12-27T10:50:25.798Z,3.2
2023-12-27T10:53:25.779Z,3.2
2023-12-27T10:56:25.777Z,3.2
2023-12-27T10:59:25.790Z,3.2
2023-12-27T11:02:25.806Z,3.3
2023-12-27T11:05:25.844Z,3.3
2023-12-27T11:08:25.807Z,3.3
2023-12-27T11:11:25.811Z,3.3
2023-12-27T11:14:25.847Z,3.3
2023-12-27T11:17:25.847Z,3.3
2023-12-27T11:20:25.859Z,3.3
2023-12-27T11:23:25.838Z,3.3
2023-12-27T11:26:25.841Z,3.3
2023-12-27T11:29:25.849Z,3.4
2023-12-27T11:32:25.879Z,3.4
2023-12-27T11:35:25.868Z,3.4
2023-12-27T11:38:25.866Z,3.4
2023-12-27T11:41:25.881Z,3.3
2023-12-27T11:44:25.880Z,3.3
2023-12-27T11:47:25.906Z,3.3
2023-12-27T11:50:25.913Z,3.2
2023-12-27T11:53:25.904Z,3.3
2023-12-27T11:56:25.911Z,3.3
2023-12-27T11:59:25.918Z,3.3
2023-12-27T12:02:25.923Z,3.4
2023-12-27T12:05:25.959Z,3.3
2023-12-27T12:08:25.939Z,3.3
2023-12-27T12:11:26.013Z,3.3
2023-12-27T12:14:25.961Z,3.2
2023-12-27T12:17:26.087Z,3.2
2023-12-27T12:20:25.986Z,3.3
2023-12-27T12:23:25.983Z,3.3
2023-12-27T12:26:27.642Z,3.3
2023-12-27T12:29:25.996Z,3.3
2023-12-27T12:32:26.061Z,3.3
2023-12-27T12:35:26.034Z,3.3
2023-12-27T12:38:26.013Z,3.2
2023-12-27T12:41:26.020Z,3.2
2023-12-27T12:44:27.200Z,3.3
2023-12-27T12:47:26.046Z,3.2
2023-12-27T12:50:26.069Z,3.3
2023-12-27T12:53:26.071Z,3.3
2023-12-27T12:56:26.069Z,3.2
2023-12-27T12:59:26.072Z,3.2
2023-12-27T13:02:26.090Z,3.2
2023-12-27T13:05:26.134Z,3.2
2023-12-27T13:08:26.098Z,3.3
2023-12-27T13:11:26.110Z,3.4
2023-12-27T13:14:26.132Z,3.4
2023-12-27T13:17:26.202Z,3.4
2023-12-27T13:20:26.141Z,3.4
2023-12-27T13:23:26.145Z,3.5
2023-12-27T13:26:26.154Z,3.5
2023-12-27T13:29:26.160Z,3.5
2023-12-27T13:32:26.194Z,3.5
2023-12-27T13:35:26.184Z,3.6
2023-12-27T13:38:26.209Z,3.6
2023-12-27T13:41:26.179Z,3.7
2023-12-27T13:44:26.181Z,3.6
2023-12-27T13:47:26.179Z,3.7
2023-12-27T13:50:26.199Z,3.7
2023-12-27T13:53:26.253Z,3.7
2023-12-27T13:56:26.224Z,3.7
2023-12-27T13:59:26.340Z,3.7
2023-12-27T14:02:26.212Z,3.8
2023-12-27T14:05:26.302Z,3.8
2023-12-27T14:08:26.188Z,3.7
2023-12-27T14:11:26.188Z,3.7
2023-12-27T14:14:26.190Z,3.8
2023-12-27T14:17:26.195Z,3.8
2023-12-27T14:20:26.206Z,3.8
2023-12-27T14:23:26.196Z,3.8
2023-12-27T14:26:26.196Z,3.8
2023-12-27T14:29:27.245Z,3.9
2023-12-27T14:32:26.236Z,3.9
2023-12-27T14:35:26.221Z,3.9
2023-12-27T14:38:26.206Z,3.8
2023-12-27T14:41:26.214Z,3.8
2023-12-27T14:44:26.211Z,3.9
2023-12-27T14:47:26.231Z,3.9
2023-12-27T14:50:26.214Z,3.8
2023-12-27T14:53:26.203Z,3.8
2023-12-27T14:56:26.212Z,3.8
2023-12-27T14:59:26.239Z,3.8
2023-12-27T15:02:26.225Z,3.8
2023-12-27T15:05:26.239Z,3.8
2023-12-27T15:08:26.227Z,3.8
2023-12-27T15:11:26.227Z,3.8
2023-12-27T15:14:26.225Z,3.8
2023-12-27T15:17:26.255Z,3.8
2023-12-27T15:20:26.248Z,3.7
2023-12-27T15:23:26.232Z,3.7
2023-12-27T15:26:26.237Z,3.7
2023-12-27T15:29:26.244Z,3.7
2023-12-27T15:32:26.305Z,3.7
2023-12-27T15:35:26.245Z,3.7
2023-12-27T15:38:26.237Z,3.8
2023-12-27T15:41:26.364Z,3.7
2023-12-27T15:44:26.256Z,3.7
2023-12-27T15:47:26.275Z,3.8
2023-12-27T15:50:26.284Z,3.7
2023-12-27T15:53:26.260Z,3.8
2023-12-27T15:56:26.259Z,3.8
2023-12-27T15:59:26.259Z,3.8
2023-12-27T16:02:26.270Z,3.8
2023-12-27T16:05:26.310Z,3.9
2023-12-27T16:08:26.286Z,3.9
2023-12-27T16:11:26.261Z,4
2023-12-27T16:14:26.265Z,4
2023-12-27T16:17:26.274Z,4
2023-12-27T16:20:26.372Z,4
2023-12-27T16:23:26.267Z,4
2023-12-27T16:26:26.264Z,4.1
2023-12-27T16:29:26.265Z,4.1
2023-12-27T16:32:26.279Z,4.1
2023-12-27T16:35:26.281Z,4.1
2023-12-27T16:38:26.271Z,4.1
2023-12-27T16:41:26.266Z,4.1
2023-12-27T16:44:26.274Z,4.1
2023-12-27T16:47:26.288Z,4.2
2023-12-27T16:50:26.293Z,4.2
2023-12-27T16:53:26.274Z,4.2
2023-12-27T16:56:26.275Z,4.2
2023-12-27T16:59:26.506Z,4.2
2023-12-27T17:02:26.273Z,4.2
2023-12-27T17:05:26.283Z,4.2
2023-12-27T17:08:26.280Z,4.2
2023-12-27T17:11:26.282Z,4.2
2023-12-27T17:14:26.278Z,4.2
2023-12-27T17:17:26.289Z,4.2
2023-12-27T17:20:26.312Z,4.2
2023-12-27T17:23:26.277Z,4.2
2023-12-27T17:26:26.287Z,4.3
2023-12-27T17:29:26.279Z,4.3
2023-12-27T17:32:26.289Z,4.3
2023-12-27T17:35:26.297Z,4.3
2023-12-27T17:38:26.287Z,4.4
2023-12-27T17:41:26.299Z,4.4
2023-12-27T17:44:26.297Z,4.4
2023-12-27T17:47:26.298Z,4.5
2023-12-27T17:50:26.323Z,4.5
2023-12-27T17:53:26.299Z,4.6
2023-12-27T17:56:26.298Z,4.6
2023-12-27T17:59:26.307Z,4.7
2023-12-27T18:02:26.309Z,4.7
2023-12-27T18:05:26.327Z,4.7
2023-12-27T18:08:26.311Z,4.7
2023-12-27T18:11:26.307Z,4.7
2023-12-27T18:14:26.317Z,4.7
2023-12-27T18:17:26.330Z,4.7
2023-12-27T18:20:26.321Z,4.8
2023-12-27T18:23:26.308Z,4.8
2023-12-27T18:26:31.341Z,4.8
2023-12-27T18:29:26.316Z,4.8
2023-12-27T18:32:26.331Z,4.8
2023-12-27T18:35:26.329Z,4.8
2023-12-27T18:38:26.338Z,4.9
2023-12-27T18:41:26.329Z,4.9
2023-12-27T18:44:26.329Z,4.9
2023-12-27T18:47:26.338Z,4.9
2023-12-27T18:50:26.574Z,4.8
2023-12-27T18:53:26.348Z,4.8
2023-12-27T18:56:26.345Z,4.8
2023-12-27T18:59:26.346Z,4.8
2023-12-27T19:02:26.518Z,4.8
2023-12-27T19:05:26.350Z,4.7
2023-12-27T19:08:26.341Z,4.7
2023-12-27T19:11:26.350Z,4.6
2023-12-27T19:14:26.355Z,4.6
2023-12-27T19:17:26.389Z,4.6
2023-12-27T19:20:26.368Z,4.5
2023-12-27T19:23:26.354Z,4.5
2023-12-27T19:26:26.347Z,4.5
2023-12-27T19:29:26.364Z,4.5
2023-12-27T19:32:26.384Z,4.5
2023-12-27T19:35:26.377Z,4.5
2023-12-27T19:38:26.361Z,4.5
2023-12-27T19:41:26.369Z,4.5
2023-12-27T19:44:26.362Z,4.5
2023-12-27T19:47:26.390Z,4.5
2023-12-27T19:50:26.394Z,4.5
2023-12-27T19:53:26.383Z,4.6
2023-12-27T19:56:26.383Z,4.5
2023-12-27T19:59:26.372Z,4.5
2023-12-27T20:02:26.395Z,4.5
2023-12-27T20:05:26.422Z,4.5
2023-12-27T20:08:26.400Z,4.5
2023-12-27T20:11:26.444Z,4.6
2023-12-27T20:14:26.604Z,4.5
2023-12-27T20:17:26.441Z,4.5
2023-12-27T20:20:26.514Z,4.5
2023-12-27T20:23:26.423Z,4.6
2023-12-27T20:26:26.418Z,4.6
2023-12-27T20:29:26.428Z,4.6
2023-12-27T20:32:26.443Z,4.6
2023-12-27T20:35:26.440Z,4.6
2023-12-27T20:38:26.437Z,4.6
2023-12-27T20:41:26.444Z,4.6
2023-12-27T20:44:26.441Z,4.6
2023-12-27T20:47:26.485Z,4.6
2023-12-27T20:50:26.467Z,4.6
2023-12-27T20:53:26.450Z,4.6
2023-12-27T20:56:26.451Z,4.7
2023-12-27T20:59:26.466Z,4.7
2023-12-27T21:02:26.450Z,4.6
2023-12-27T21:05:26.521Z,4.7
2023-12-27T21:08:26.455Z,4.6
2023-12-27T21:11:26.468Z,4.6
2023-12-27T21:14:26.454Z,4.6
2023-12-27T21:17:26.489Z,4.6
2023-12-27T21:20:26.482Z,4.6
2023-12-27T21:23:26.468Z,4.7
2023-12-27T21:26:26.480Z,4.8
2023-12-27T21:29:26.504Z,4.9
2023-12-27T21:32:26.549Z,4.9
2023-12-27T21:35:26.494Z,4.9
2023-12-27T21:38:26.491Z,4.9
2023-12-27T21:41:26.498Z,5
2023-12-27T21:44:26.499Z,4.9
2023-12-27T21:47:26.514Z,4.9
2023-12-27T21:50:26.494Z,4.8
2023-12-27T21:53:26.499Z,4.8
2023-12-27T21:56:26.520Z,4.8
2023-12-27T21:59:26.528Z,4.7
2023-12-27T22:02:26.527Z,4.8
2023-12-27T22:05:26.547Z,4.7
2023-12-27T22:08:26.524Z,4.7
2023-12-27T22:11:26.538Z,4.7
2023-12-27T22:14:26.537Z,4.7
2023-12-27T22:17:26.612Z,4.6
2023-12-27T22:20:26.551Z,4.6
2023-12-27T22:23:26.540Z,4.6
2023-12-27T22:26:26.555Z,4.5
2023-12-27T22:29:26.544Z,4.5
2023-12-27T22:32:26.591Z,4.5
2023-12-27T22:35:26.571Z,4.5
2023-12-27T22:38:26.572Z,4.5
2023-12-27T22:41:26.599Z,4.5
2023-12-27T22:44:26.586Z,4.6
2023-12-27T22:47:26.586Z,4.6
2023-12-27T22:50:26.596Z,4.6
2023-12-27T22:53:26.593Z,4.6
2023-12-27T22:56:26.610Z,4.5
2023-12-27T22:59:26.613Z,4.4
2023-12-27T23:02:26.618Z,4.3
2023-12-27T23:05:26.698Z,4.2
2023-12-27T23:08:26.612Z,4.2
2023-12-27T23:11:26.634Z,4.2
2023-12-27T23:14:26.633Z,4.2
2023-12-27T23:17:26.738Z,4.1
2023-12-27T23:20:26.644Z,4.2
2023-12-27T23:23:26.647Z,4.2
2023-12-27T23:26:26.644Z,4.1
2023-12-27T23:29:26.668Z,4.1
2023-12-27T23:32:32.043Z,3.9
2023-12-27T23:35:26.654Z,3.9
2023-12-27T23:38:26.673Z,3.8
2023-12-27T23:41:26.674Z,3.8
2023-12-27T23:44:26.679Z,3.6
2023-12-27T23:47:26.733Z,3.7
2023-12-27T23:50:26.690Z,3.6
2023-12-27T23:53:26.676Z,3.5
2023-12-27T23:56:26.698Z,3.5
2023-12-27T23:59:26.686Z,3.5
